sensor_id;sensor_type;location;lat;lon;timestamp;pressure;altitude;pressure_sealevel;temperature;humidity
44103;BME280;29769;42.178;24.742;2023-05-20T00:01:06;99841.63;;;12.45;100.00
44103;BME280;29769;42.178;24.742;2023-05-20T00:03:51;99838.91;;;12.50;100.00
44103;BME280;29769;42.178;24.742;2023-05-20T00:06:35;99838.88;;;12.52;100.00
44103;BME280;29769;42.178;24.742;2023-05-20T00:09:20;99830.06;;;12.53;100.00
44103;BME280;29769;42.178;24.742;2023-05-20T00:12:04;99840.56;;;12.54;100.00
44103;BME280;29769;42.178;24.742;2023-05-20T00:14:49;99831.72;;;12.58;100.00
44103;BME280;29769;42.178;24.742;2023-05-20T00:17:34;99828.13;;;12.61;100.00
44103;BME280;29769;42.178;24.742;2023-05-20T00:20:18;99827.19;;;12.63;100.00
44103;BME280;29769;42.178;24.742;2023-05-20T00:23:03;99828.22;;;12.58;100.00
44103;BME280;29769;42.178;24.742;2023-05-20T00:25:48;99824.72;;;12.56;100.00
44103;BME280;29769;42.178;24.742;2023-05-20T00:28:32;99830.06;;;12.53;100.00
44103;BME280;29769;42.178;24.742;2023-05-20T00:31:17;99826.47;;;12.57;100.00
44103;BME280;29769;42.178;24.742;2023-05-20T00:34:01;99821.97;;;12.62;100.00
44103;BME280;29769;42.178;24.742;2023-05-20T00:36:47;99828.94;;;12.64;100.00
44103;BME280;29769;42.178;24.742;2023-05-20T00:39:31;99825.50;;;12.61;100.00
44103;BME280;29769;42.178;24.742;2023-05-20T00:42:22;99827.28;;;12.59;100.00
44103;BME280;29769;42.178;24.742;2023-05-20T00:45:07;99826.53;;;12.54;100.00
44103;BME280;29769;42.178;24.742;2023-05-20T00:47:52;99822.19;;;12.49;100.00
44103;BME280;29769;42.178;24.742;2023-05-20T00:50:37;99817.75;;;12.53;100.00
44103;BME280;29769;42.178;24.742;2023-05-20T00:53:22;99812.56;;;12.48;100.00
44103;BME280;29769;42.178;24.742;2023-05-20T00:56:07;99811.81;;;12.42;100.00
44103;BME280;29769;42.178;24.742;2023-05-20T00:58:52;99809.44;;;12.30;100.00
44103;BME280;29769;42.178;24.742;2023-05-20T01:01:36;99815.81;;;12.18;100.00
44103;BME280;29769;42.178;24.742;2023-05-20T01:04:21;99813.44;;;12.06;100.00
44103;BME280;29769;42.178;24.742;2023-05-20T01:07:06;99806.56;;;11.99;100.00
44103;BME280;29769;42.178;24.742;2023-05-20T01:09:50;99810.97;;;11.97;100.00
44103;BME280;29769;42.178;24.742;2023-05-20T01:12:52;99808.41;;;11.94;100.00
44103;BME280;29769;42.178;24.742;2023-05-20T01:15:37;99808.47;;;11.89;100.00
44103;BME280;29769;42.178;24.742;2023-05-20T01:18:23;99810.28;;;11.86;100.00
44103;BME280;29769;42.178;24.742;2023-05-20T01:21:12;99802.28;;;11.92;100.00
44103;BME280;29769;42.178;24.742;2023-05-20T01:23:57;99801.19;;;12.03;100.00
44103;BME280;29769;42.178;24.742;2023-05-20T01:26:41;99796.66;;;12.10;100.00
44103;BME280;29769;42.178;24.742;2023-05-20T01:29:26;99790.38;;;12.17;100.00
44103;BME280;29769;42.178;24.742;2023-05-20T01:32:22;99796.38;;;12.22;100.00
44103;BME280;29769;42.178;24.742;2023-05-20T01:35:08;99803.41;;;12.23;100.00
44103;BME280;29769;42.178;24.742;2023-05-20T01:37:53;99798.22;;;12.19;100.00
44103;BME280;29769;42.178;24.742;2023-05-20T01:40:39;99800.94;;;12.14;100.00
44103;BME280;29769;42.178;24.742;2023-05-20T01:43:25;99790.66;;;12.02;100.00
44103;BME280;29769;42.178;24.742;2023-05-20T01:46:10;99796.81;;;12.01;100.00
44103;BME280;29769;42.178;24.742;2023-05-20T01:48:54;99791.47;;;12.04;100.00
44103;BME280;29769;42.178;24.742;2023-05-20T01:51:39;99796.84;;;11.99;100.00
44103;BME280;29769;42.178;24.742;2023-05-20T01:54:24;99796.97;;;11.93;100.00
44103;BME280;29769;42.178;24.742;2023-05-20T01:57:08;99794.38;;;11.92;100.00
44103;BME280;29769;42.178;24.742;2023-05-20T01:59:53;99789.09;;;11.92;100.00
44103;BME280;29769;42.178;24.742;2023-05-20T02:02:39;99788.19;;;11.93;100.00
44103;BME280;29769;42.178;24.742;2023-05-20T02:05:23;99787.31;;;11.94;100.00
44103;BME280;29769;42.178;24.742;2023-05-20T02:08:08;99778.47;;;11.95;100.00
44103;BME280;29769;42.178;24.742;2023-05-20T02:10:52;99771.34;;;12.00;100.00
44103;BME280;29769;42.178;24.742;2023-05-20T02:13:37;99764.28;;;12.02;100.00
44103;BME280;29769;42.178;24.742;2023-05-20T02:16:23;99776.81;;;11.91;100.00
44103;BME280;29769;42.178;24.742;2023-05-20T02:19:09;99772.50;;;11.87;100.00
44103;BME280;29769;42.178;24.742;2023-05-20T02:21:56;99757.72;;;11.80;100.00
44103;BME280;29769;42.178;24.742;2023-05-20T02:24:40;99755.19;;;11.74;100.00
44103;BME280;29769;42.178;24.742;2023-05-20T02:27:27;99761.53;;;11.60;100.00
44103;BME280;29769;42.178;24.742;2023-05-20T02:30:11;99759.16;;;11.47;100.00
44103;BME280;29769;42.178;24.742;2023-05-20T02:32:56;99765.47;;;11.38;100.00
44103;BME280;29769;42.178;24.742;2023-05-20T02:35:41;99762.81;;;11.40;100.00
44103;BME280;29769;42.178;24.742;2023-05-20T02:38:26;99763.63;;;11.43;100.00
44103;BME280;29769;42.178;24.742;2023-05-20T02:41:10;99765.31;;;11.47;100.00
44103;BME280;29769;42.178;24.742;2023-05-20T02:43:55;99758.06;;;11.58;100.00
44103;BME280;29769;42.178;24.742;2023-05-20T02:46:39;99757.00;;;11.69;100.00
44103;BME280;29769;42.178;24.742;2023-05-20T02:49:24;99761.13;;;11.85;100.00
44103;BME280;29769;42.178;24.742;2023-05-20T02:52:09;99767.19;;;11.90;100.00
44103;BME280;29769;42.178;24.742;2023-05-20T02:54:54;99766.94;;;12.00;100.00
44103;BME280;29769;42.178;24.742;2023-05-20T02:57:39;99773.81;;;12.09;100.00
44103;BME280;29769;42.178;24.742;2023-05-20T03:00:26;99765.69;;;12.20;100.00
44103;BME280;29769;42.178;24.742;2023-05-20T03:03:13;99770.75;;;12.30;100.00
44103;BME280;29769;42.178;24.742;2023-05-20T03:05:58;99782.03;;;12.37;100.00
44103;BME280;29769;42.178;24.742;2023-05-20T03:08:43;99771.44;;;12.40;100.00
44103;BME280;29769;42.178;24.742;2023-05-20T03:11:27;99780.03;;;12.48;100.00
44103;BME280;29769;42.178;24.742;2023-05-20T03:14:12;99774.81;;;12.45;100.00
44103;BME280;29769;42.178;24.742;2023-05-20T03:16:57;99775.00;;;12.36;100.00
44103;BME280;29769;42.178;24.742;2023-05-20T03:19:43;99784.84;;;12.29;100.00
44103;BME280;29769;42.178;24.742;2023-05-20T03:22:28;99789.31;;;12.24;100.00
44103;BME280;29769;42.178;24.742;2023-05-20T03:25:13;99798.09;;;12.26;100.00
44103;BME280;29769;42.178;24.742;2023-05-20T03:27:57;99807.50;;;12.39;100.00
44103;BME280;29769;42.178;24.742;2023-05-20T03:30:43;99811.63;;;12.51;100.00
44103;BME280;29769;42.178;24.742;2023-05-20T03:33:28;99813.09;;;12.64;100.00
44103;BME280;29769;42.178;24.742;2023-05-20T03:36:13;99826.88;;;12.77;100.00
44103;BME280;29769;42.178;24.742;2023-05-20T03:38:58;99824.03;;;12.86;100.00
44103;BME280;29769;42.178;24.742;2023-05-20T03:41:42;99805.94;;;12.69;100.00
44103;BME280;29769;42.178;24.742;2023-05-20T03:44:28;99844.13;;;12.95;100.00
44103;BME280;29769;42.178;24.742;2023-05-20T03:47:12;99854.69;;;12.95;100.00
44103;BME280;29769;42.178;24.742;2023-05-20T03:49:57;99855.09;;;12.76;100.00
44103;BME280;29769;42.178;24.742;2023-05-20T03:52:42;99848.16;;;12.71;100.00
44103;BME280;29769;42.178;24.742;2023-05-20T03:55:27;99838.38;;;12.76;100.00
44103;BME280;29769;42.178;24.742;2023-05-20T03:58:12;99832.53;;;12.60;100.00
44103;BME280;29769;42.178;24.742;2023-05-20T04:00:59;99837.81;;;12.60;100.00
44103;BME280;29769;42.178;24.742;2023-05-20T04:03:44;99836.03;;;12.62;100.00
44103;BME280;29769;42.178;24.742;2023-05-20T04:06:29;99828.09;;;12.62;100.00
44103;BME280;29769;42.178;24.742;2023-05-20T04:09:15;99833.34;;;12.64;100.00
44103;BME280;29769;42.178;24.742;2023-05-20T04:11:59;99829.63;;;12.72;100.00
44103;BME280;29769;42.178;24.742;2023-05-20T04:14:44;99833.25;;;12.68;100.00
44103;BME280;29769;42.178;24.742;2023-05-20T04:17:29;99829.69;;;12.69;100.00
44103;BME280;29769;42.178;24.742;2023-05-20T04:20:14;99833.22;;;12.70;100.00
44103;BME280;29769;42.178;24.742;2023-05-20T04:22:58;99834.75;;;12.80;100.00
44103;BME280;29769;42.178;24.742;2023-05-20T04:25:43;99832.69;;;12.94;100.00
44103;BME280;29769;42.178;24.742;2023-05-20T04:28:28;99832.38;;;13.08;100.00
44103;BME280;29769;42.178;24.742;2023-05-20T04:31:15;99829.47;;;13.20;100.00
44103;BME280;29769;42.178;24.742;2023-05-20T04:34:00;99822.09;;;13.32;100.00
44103;BME280;29769;42.178;24.742;2023-05-20T04:36:46;99824.53;;;13.42;100.00
44103;BME280;29769;42.178;24.742;2023-05-20T04:39:32;99817.34;;;13.47;100.00
44103;BME280;29769;42.178;24.742;2023-05-20T04:42:17;99823.41;;;13.50;100.00
44103;BME280;29769;42.178;24.742;2023-05-20T04:45:02;99820.63;;;13.56;100.00
44103;BME280;29769;42.178;24.742;2023-05-20T04:47:50;99824.84;;;13.63;100.00
44103;BME280;29769;42.178;24.742;2023-05-20T04:50:36;99788.06;;;13.56;100.00
44103;BME280;29769;42.178;24.742;2023-05-20T04:53:24;99834.56;;;13.97;100.00
44103;BME280;29769;42.178;24.742;2023-05-20T04:56:08;99845.59;;;14.12;100.00
44103;BME280;29769;42.178;24.742;2023-05-20T04:58:53;99848.72;;;14.26;100.00
44103;BME280;29769;42.178;24.742;2023-05-20T05:01:39;99843.25;;;14.33;100.00
44103;BME280;29769;42.178;24.742;2023-05-20T05:04:24;99845.44;;;14.49;100.00
44103;BME280;29769;42.178;24.742;2023-05-20T05:07:09;99844.25;;;14.61;100.00
44103;BME280;29769;42.178;24.742;2023-05-20T05:09:54;99840.41;;;14.71;100.00
44103;BME280;29769;42.178;24.742;2023-05-20T05:12:39;99835.63;;;14.84;100.00
44103;BME280;29769;42.178;24.742;2023-05-20T05:15:24;99841.56;;;14.90;100.00
44103;BME280;29769;42.178;24.742;2023-05-20T05:18:09;99837.72;;;15.02;100.00
44103;BME280;29769;42.178;24.742;2023-05-20T05:20:58;99844.22;;;15.20;100.00
44103;BME280;29769;42.178;24.742;2023-05-20T05:23:42;99845.41;;;15.37;100.00
44103;BME280;29769;42.178;24.742;2023-05-20T05:26:28;99846.94;;;15.44;100.00
44103;BME280;29769;42.178;24.742;2023-05-20T05:29:13;99849.22;;;15.56;100.00
44103;BME280;29769;42.178;24.742;2023-05-20T05:31:58;99851.97;;;15.80;100.00
44103;BME280;29769;42.178;24.742;2023-05-20T05:34:43;99852.47;;;15.91;100.00
44103;BME280;29769;42.178;24.742;2023-05-20T05:37:27;99852.69;;;16.10;100.00
44103;BME280;29769;42.178;24.742;2023-05-20T05:40:12;99854.69;;;16.28;100.00
44103;BME280;29769;42.178;24.742;2023-05-20T05:42:56;99848.84;;;16.43;100.00
44103;BME280;29769;42.178;24.742;2023-05-20T05:45:41;99842.13;;;16.58;100.00
44103;BME280;29769;42.178;24.742;2023-05-20T05:48:26;99842.47;;;16.72;100.00
44103;BME280;29769;42.178;24.742;2023-05-20T05:51:10;99843.50;;;16.68;100.00
44103;BME280;29769;42.178;24.742;2023-05-20T05:53:55;99841.94;;;16.85;100.00
44103;BME280;29769;42.178;24.742;2023-05-20T05:56:40;99836.16;;;16.98;100.00
44103;BME280;29769;42.178;24.742;2023-05-20T05:59:25;99828.88;;;17.03;100.00
44103;BME280;29769;42.178;24.742;2023-05-20T06:02:11;99840.03;;;17.12;100.00
44103;BME280;29769;42.178;24.742;2023-05-20T06:04:57;99836.72;;;17.27;100.00
44103;BME280;29769;42.178;24.742;2023-05-20T06:07:42;99835.78;;;17.50;100.00
44103;BME280;29769;42.178;24.742;2023-05-20T06:10:27;99839.94;;;17.57;100.00
44103;BME280;29769;42.178;24.742;2023-05-20T06:13:13;99825.09;;;17.73;100.00
44103;BME280;29769;42.178;24.742;2023-05-20T06:15:57;99833.03;;;17.95;100.00
44103;BME280;29769;42.178;24.742;2023-05-20T06:18:47;99834.09;;;17.91;100.00
44103;BME280;29769;42.178;24.742;2023-05-20T06:21:33;99835.72;;;18.15;100.00
44103;BME280;29769;42.178;24.742;2023-05-20T06:24:19;99836.75;;;18.32;100.00
44103;BME280;29769;42.178;24.742;2023-05-20T06:27:04;99830.09;;;18.42;100.00
44103;BME280;29769;42.178;24.742;2023-05-20T06:29:49;99839.72;;;18.64;100.00
44103;BME280;29769;42.178;24.742;2023-05-20T06:32:33;99832.13;;;18.76;100.00
44103;BME280;29769;42.178;24.742;2023-05-20T06:35:17;99815.53;;;18.88;100.00
44103;BME280;29769;42.178;24.742;2023-05-20T06:38:02;99830.38;;;19.12;100.00
44103;BME280;29769;42.178;24.742;2023-05-20T06:40:47;99831.00;;;19.17;100.00
44103;BME280;29769;42.178;24.742;2023-05-20T06:43:32;99831.66;;;19.22;100.00
44103;BME280;29769;42.178;24.742;2023-05-20T06:46:44;99826.31;;;19.22;100.00
44103;BME280;29769;42.178;24.742;2023-05-20T06:49:32;99822.09;;;19.35;100.00
44103;BME280;29769;42.178;24.742;2023-05-20T06:52:18;99819.09;;;19.43;100.00
44103;BME280;29769;42.178;24.742;2023-05-20T06:55:04;99820.00;;;19.61;100.00
44103;BME280;29769;42.178;24.742;2023-05-20T06:57:49;99821.34;;;19.69;100.00
44103;BME280;29769;42.178;24.742;2023-05-20T07:00:35;99821.56;;;19.82;100.00
44103;BME280;29769;42.178;24.742;2023-05-20T07:03:20;99827.72;;;20.01;100.00
44103;BME280;29769;42.178;24.742;2023-05-20T07:06:05;99821.25;;;20.05;100.00
44103;BME280;29769;42.178;24.742;2023-05-20T07:08:49;99816.63;;;20.26;90.50
44103;BME280;29769;42.178;24.742;2023-05-20T07:11:34;99822.72;;;20.45;86.12
44103;BME280;29769;42.178;24.742;2023-05-20T07:14:19;99832.03;;;20.71;83.67
44103;BME280;29769;42.178;24.742;2023-05-20T07:17:05;99830.00;;;21.07;83.11
44103;BME280;29769;42.178;24.742;2023-05-20T07:19:50;99836.16;;;21.25;78.26
44103;BME280;29769;42.178;24.742;2023-05-20T07:22:35;99836.50;;;21.35;76.71
44103;BME280;29769;42.178;24.742;2023-05-20T07:25:32;99829.84;;;21.57;76.01
44103;BME280;29769;42.178;24.742;2023-05-20T07:28:17;99825.38;;;21.72;73.47
44103;BME280;29769;42.178;24.742;2023-05-20T07:31:02;99830.31;;;22.09;71.00
44103;BME280;29769;42.178;24.742;2023-05-20T07:33:49;99826.72;;;22.67;72.67
44103;BME280;29769;42.178;24.742;2023-05-20T07:36:34;99827.84;;;23.20;67.06
44103;BME280;29769;42.178;24.742;2023-05-20T07:39:23;99837.06;;;23.57;65.61
44103;BME280;29769;42.178;24.742;2023-05-20T07:42:08;99825.66;;;23.80;62.13
44103;BME280;29769;42.178;24.742;2023-05-20T07:44:54;99827.78;;;23.75;62.88
44103;BME280;29769;42.178;24.742;2023-05-20T07:47:39;99822.25;;;24.03;62.43
44103;BME280;29769;42.178;24.742;2023-05-20T07:50:25;99810.94;;;24.25;60.76
44103;BME280;29769;42.178;24.742;2023-05-20T07:53:10;99822.66;;;24.24;59.27
44103;BME280;29769;42.178;24.742;2023-05-20T07:55:56;99824.38;;;24.50;57.25
44103;BME280;29769;42.178;24.742;2023-05-20T07:58:43;99816.72;;;24.69;55.99
44103;BME280;29769;42.178;24.742;2023-05-20T08:01:35;99808.69;;;25.18;52.28
44103;BME280;29769;42.178;24.742;2023-05-20T08:04:21;99801.63;;;25.65;50.46
44103;BME280;29769;42.178;24.742;2023-05-20T08:07:06;99801.25;;;26.73;49.76
44103;BME280;29769;42.178;24.742;2023-05-20T08:10:05;99797.78;;;27.37;43.80
44103;BME280;29769;42.178;24.742;2023-05-20T08:12:50;99800.53;;;27.69;40.58
44103;BME280;29769;42.178;24.742;2023-05-20T08:15:35;99804.88;;;27.81;40.69
44103;BME280;29769;42.178;24.742;2023-05-20T08:18:20;99802.91;;;27.40;42.37
44103;BME280;29769;42.178;24.742;2023-05-20T08:21:05;99798.22;;;27.54;41.50
44103;BME280;29769;42.178;24.742;2023-05-20T08:23:53;99794.81;;;27.83;40.02
44103;BME280;29769;42.178;24.742;2023-05-20T08:26:38;99790.88;;;27.56;40.70
44103;BME280;29769;42.178;24.742;2023-05-20T08:29:22;99792.84;;;27.42;41.13
44103;BME280;29769;42.178;24.742;2023-05-20T08:32:07;99791.38;;;27.81;39.81
44103;BME280;29769;42.178;24.742;2023-05-20T08:34:53;99789.25;;;28.38;39.29
44103;BME280;29769;42.178;24.742;2023-05-20T08:37:39;99793.63;;;28.90;37.94
44103;BME280;29769;42.178;24.742;2023-05-20T08:40:23;99788.94;;;28.92;38.97
44103;BME280;29769;42.178;24.742;2023-05-20T08:43:09;99796.47;;;27.96;39.72
44103;BME280;29769;42.178;24.742;2023-05-20T08:45:54;99789.94;;;28.40;38.20
44103;BME280;29769;42.178;24.742;2023-05-20T08:48:41;99789.88;;;28.81;37.65
44103;BME280;29769;42.178;24.742;2023-05-20T08:51:25;99784.56;;;29.00;38.47
44103;BME280;29769;42.178;24.742;2023-05-20T08:54:10;99785.56;;;29.09;39.09
44103;BME280;29769;42.178;24.742;2023-05-20T08:56:56;99785.16;;;28.73;40.22
44103;BME280;29769;42.178;24.742;2023-05-20T08:59:41;99777.88;;;28.44;39.42
44103;BME280;29769;42.178;24.742;2023-05-20T09:02:27;99789.66;;;27.49;40.48
44103;BME280;29769;42.178;24.742;2023-05-20T09:05:11;99785.06;;;27.92;40.00
44103;BME280;29769;42.178;24.742;2023-05-20T09:08:09;99786.75;;;28.55;39.71
44103;BME280;29769;42.178;24.742;2023-05-20T09:10:54;99785.13;;;29.04;37.99
44103;BME280;29769;42.178;24.742;2023-05-20T09:13:39;99777.31;;;29.10;38.77
44103;BME280;29769;42.178;24.742;2023-05-20T09:16:24;99775.97;;;29.54;38.75
44103;BME280;29769;42.178;24.742;2023-05-20T09:19:09;99775.41;;;30.18;38.04
44103;BME280;29769;42.178;24.742;2023-05-20T09:21:53;99770.28;;;31.44;34.45
44103;BME280;29769;42.178;24.742;2023-05-20T09:24:38;99775.28;;;32.19;34.16
44103;BME280;29769;42.178;24.742;2023-05-20T09:27:23;99771.06;;;32.50;32.95
44103;BME280;29769;42.178;24.742;2023-05-20T09:30:08;99770.56;;;31.86;33.44
44103;BME280;29769;42.178;24.742;2023-05-20T09:32:56;99773.75;;;31.63;33.93
44103;BME280;29769;42.178;24.742;2023-05-20T09:35:41;99775.97;;;32.21;33.55
44103;BME280;29769;42.178;24.742;2023-05-20T09:38:26;99778.25;;;31.10;35.34
44103;BME280;29769;42.178;24.742;2023-05-20T09:41:11;99779.72;;;30.11;36.30
44103;BME280;29769;42.178;24.742;2023-05-20T09:43:55;99772.88;;;29.88;36.77
44103;BME280;29769;42.178;24.742;2023-05-20T09:46:40;99771.56;;;30.11;35.67
44103;BME280;29769;42.178;24.742;2023-05-20T09:49:26;99758.44;;;29.87;36.67
44103;BME280;29769;42.178;24.742;2023-05-20T09:52:12;99746.72;;;30.89;34.84
44103;BME280;29769;42.178;24.742;2023-05-20T09:54:59;99745.75;;;31.53;35.91
44103;BME280;29769;42.178;24.742;2023-05-20T09:57:45;99748.34;;;30.82;34.61
44103;BME280;29769;42.178;24.742;2023-05-20T10:00:30;99751.16;;;29.78;36.72
44103;BME280;29769;42.178;24.742;2023-05-20T10:03:16;99752.03;;;29.69;36.88
44103;BME280;29769;42.178;24.742;2023-05-20T10:06:23;99759.06;;;28.01;40.02
44103;BME280;29769;42.178;24.742;2023-05-20T10:15:20;99755.22;;;27.19;44.57
44103;BME280;29769;42.178;24.742;2023-05-20T10:18:17;99751.00;;;25.92;48.74
44103;BME280;29769;42.178;24.742;2023-05-20T10:21:13;99750.50;;;26.33;48.35
44103;BME280;29769;42.178;24.742;2023-05-20T10:24:05;99750.97;;;27.80;46.94
44103;BME280;29769;42.178;24.742;2023-05-20T10:26:53;99754.41;;;28.23;40.77
44103;BME280;29769;42.178;24.742;2023-05-20T10:29:45;99744.91;;;28.29;38.62
44103;BME280;29769;42.178;24.742;2023-05-20T10:32:33;99753.19;;;28.37;38.39
44103;BME280;29769;42.178;24.742;2023-05-20T10:35:22;99739.50;;;28.29;37.72
44103;BME280;29769;42.178;24.742;2023-05-20T10:38:10;99742.59;;;28.55;37.01
44103;BME280;29769;42.178;24.742;2023-05-20T10:40:54;99732.56;;;30.12;35.40
44103;BME280;29769;42.178;24.742;2023-05-20T10:43:40;99737.19;;;30.48;34.54
44103;BME280;29769;42.178;24.742;2023-05-20T10:46:27;99737.31;;;30.57;33.99
44103;BME280;29769;42.178;24.742;2023-05-20T10:49:18;99732.00;;;30.09;34.37
44103;BME280;29769;42.178;24.742;2023-05-20T10:52:03;99745.44;;;29.81;35.04
44103;BME280;29769;42.178;24.742;2023-05-20T10:54:54;99741.34;;;30.43;35.45
44103;BME280;29769;42.178;24.742;2023-05-20T10:57:39;99738.38;;;31.28;33.93
44103;BME280;29769;42.178;24.742;2023-05-20T11:00:24;99742.75;;;30.57;34.36
44103;BME280;29769;42.178;24.742;2023-05-20T11:03:09;99705.59;;;29.14;36.91
44103;BME280;29769;42.178;24.742;2023-05-20T11:05:56;99749.00;;;28.23;38.95
44103;BME280;29769;42.178;24.742;2023-05-20T11:08:41;99747.00;;;27.84;41.82
44103;BME280;29769;42.178;24.742;2023-05-20T11:11:26;99740.44;;;27.02;43.30
44103;BME280;29769;42.178;24.742;2023-05-20T11:14:11;99747.47;;;26.03;46.60
44103;BME280;29769;42.178;24.742;2023-05-20T11:16:58;99741.97;;;26.04;47.38
44103;BME280;29769;42.178;24.742;2023-05-20T11:19:43;99747.13;;;26.19;47.65
44103;BME280;29769;42.178;24.742;2023-05-20T11:22:27;99743.34;;;26.21;47.64
44103;BME280;29769;42.178;24.742;2023-05-20T11:25:12;99744.44;;;26.19;45.71
44103;BME280;29769;42.178;24.742;2023-05-20T11:27:57;99731.00;;;26.30;43.24
44103;BME280;29769;42.178;24.742;2023-05-20T11:30:42;99724.97;;;27.36;38.16
44103;BME280;29769;42.178;24.742;2023-05-20T11:33:27;99724.34;;;28.47;37.51
44103;BME280;29769;42.178;24.742;2023-05-20T11:36:13;99717.03;;;28.38;37.18
44103;BME280;29769;42.178;24.742;2023-05-20T11:38:58;99724.81;;;28.92;36.95
44103;BME280;29769;42.178;24.742;2023-05-20T11:41:43;99722.63;;;29.45;35.50
44103;BME280;29769;42.178;24.742;2023-05-20T11:44:28;99721.00;;;27.40;38.57
44103;BME280;29769;42.178;24.742;2023-05-20T11:47:13;99722.22;;;27.47;37.54
44103;BME280;29769;42.178;24.742;2023-05-20T11:49:57;99725.81;;;27.36;38.82
44103;BME280;29769;42.178;24.742;2023-05-20T11:52:42;99727.28;;;27.40;39.42
44103;BME280;29769;42.178;24.742;2023-05-20T11:55:26;99720.88;;;27.41;38.99
44103;BME280;29769;42.178;24.742;2023-05-20T11:58:14;99734.25;;;27.11;40.79
44103;BME280;29769;42.178;24.742;2023-05-20T12:00:58;99723.38;;;26.90;40.47
44103;BME280;29769;42.178;24.742;2023-05-20T12:03:43;99723.88;;;26.73;41.33
44103;BME280;29769;42.178;24.742;2023-05-20T12:06:28;99729.47;;;26.15;42.20
44103;BME280;29769;42.178;24.742;2023-05-20T12:09:12;99719.03;;;25.53;44.20
44103;BME280;29769;42.178;24.742;2023-05-20T12:11:57;99726.25;;;25.29;44.71
44103;BME280;29769;42.178;24.742;2023-05-20T12:14:42;99712.78;;;25.05;45.71
44103;BME280;29769;42.178;24.742;2023-05-20T12:17:26;99712.56;;;25.32;46.85
44103;BME280;29769;42.178;24.742;2023-05-20T12:20:12;99715.56;;;25.51;45.65
44103;BME280;29769;42.178;24.742;2023-05-20T12:22:57;99717.25;;;25.17;45.59
44103;BME280;29769;42.178;24.742;2023-05-20T12:25:43;99713.63;;;24.69;45.81
44103;BME280;29769;42.178;24.742;2023-05-20T12:28:30;99711.84;;;24.57;45.21
44103;BME280;29769;42.178;24.742;2023-05-20T12:31:15;99704.97;;;24.53;46.50
44103;BME280;29769;42.178;24.742;2023-05-20T12:34:00;99709.25;;;24.55;46.01
44103;BME280;29769;42.178;24.742;2023-05-20T12:36:44;99700.81;;;25.09;45.37
44103;BME280;29769;42.178;24.742;2023-05-20T12:39:29;99702.28;;;25.26;43.96
44103;BME280;29769;42.178;24.742;2023-05-20T12:42:14;99695.72;;;24.80;43.59
44103;BME280;29769;42.178;24.742;2023-05-20T12:44:58;99696.84;;;24.78;44.66
44103;BME280;29769;42.178;24.742;2023-05-20T12:47:43;99690.09;;;24.60;44.94
44103;BME280;29769;42.178;24.742;2023-05-20T12:50:28;99684.13;;;24.31;45.48
44103;BME280;29769;42.178;24.742;2023-05-20T12:53:12;99676.63;;;24.23;46.96
44103;BME280;29769;42.178;24.742;2023-05-20T12:55:57;99672.75;;;24.02;47.08
44103;BME280;29769;42.178;24.742;2023-05-20T12:58:42;99672.44;;;24.07;48.42
44103;BME280;29769;42.178;24.742;2023-05-20T13:01:26;99669.22;;;23.89;48.49
44103;BME280;29769;42.178;24.742;2023-05-20T13:04:11;99665.88;;;23.73;47.23
44103;BME280;29769;42.178;24.742;2023-05-20T13:06:56;99659.22;;;23.91;49.09
44103;BME280;29769;42.178;24.742;2023-05-20T13:09:40;99658.75;;;24.35;49.02
44103;BME280;29769;42.178;24.742;2023-05-20T13:12:25;99651.00;;;24.43;48.59
44103;BME280;29769;42.178;24.742;2023-05-20T13:15:10;99647.56;;;24.41;49.24
44103;BME280;29769;42.178;24.742;2023-05-20T13:17:55;99652.50;;;24.47;52.96
44103;BME280;29769;42.178;24.742;2023-05-20T13:20:39;99645.69;;;24.54;50.97
44103;BME280;29769;42.178;24.742;2023-05-20T13:23:24;99647.84;;;24.62;50.07
44103;BME280;29769;42.178;24.742;2023-05-20T13:26:09;99651.53;;;24.48;50.99
44103;BME280;29769;42.178;24.742;2023-05-20T13:28:54;99649.31;;;24.29;50.65
44103;BME280;29769;42.178;24.742;2023-05-20T13:31:39;99637.59;;;24.18;51.60
44103;BME280;29769;42.178;24.742;2023-05-20T13:34:24;99643.34;;;24.50;53.35
44103;BME280;29769;42.178;24.742;2023-05-20T13:37:09;99639.84;;;24.97;52.81
44103;BME280;29769;42.178;24.742;2023-05-20T13:39:53;99628.34;;;24.95;51.64
44103;BME280;29769;42.178;24.742;2023-05-20T13:42:38;99629.78;;;25.11;51.26
44103;BME280;29769;42.178;24.742;2023-05-20T13:45:22;99629.44;;;24.92;49.10
44103;BME280;29769;42.178;24.742;2023-05-20T13:48:07;99630.03;;;24.72;50.12
44103;BME280;29769;42.178;24.742;2023-05-20T13:50:51;99631.25;;;24.92;49.94
44103;BME280;29769;42.178;24.742;2023-05-20T13:53:37;99626.22;;;25.11;48.44
44103;BME280;29769;42.178;24.742;2023-05-20T13:56:22;99619.56;;;25.85;46.23
44103;BME280;29769;42.178;24.742;2023-05-20T13:59:07;99630.97;;;26.98;42.66
44103;BME280;29769;42.178;24.742;2023-05-20T14:01:52;99618.13;;;27.84;42.21
44103;BME280;29769;42.178;24.742;2023-05-20T14:04:37;99615.94;;;28.09;41.22
44103;BME280;29769;42.178;24.742;2023-05-20T14:07:22;99595.88;;;27.81;39.86
44103;BME280;29769;42.178;24.742;2023-05-20T14:10:07;99594.38;;;27.26;38.25
44103;BME280;29769;42.178;24.742;2023-05-20T14:12:52;99592.63;;;26.29;39.93
44103;BME280;29769;42.178;24.742;2023-05-20T14:15:37;99595.16;;;26.31;40.36
44103;BME280;29769;42.178;24.742;2023-05-20T14:18:22;99591.50;;;26.86;39.72
44103;BME280;29769;42.178;24.742;2023-05-20T14:21:06;99598.72;;;26.42;40.33
44103;BME280;29769;42.178;24.742;2023-05-20T14:23:51;99591.34;;;27.40;40.18
44103;BME280;29769;42.178;24.742;2023-05-20T14:26:35;99594.78;;;27.63;38.02